KGEG/GEG METAR and TAF weather

Enter ICAO airport designator
Station Type Date Time Source
KGEG METAR 2019/05/25 15:53 UTC NOAA

KGEG 251553Z 17009KT 10SM FEW016 BKN040 BKN120 09/04 A2990 RMK AO2 SLP126 T00940044


Station Type Date Time Source
KGEG Decoded METAR 2019/05/25 15:53 UTC NOAA

SPOKANE INTERNATIONAL AIRPORT , WA, United States (KGEG) 47-37N 117-32W 735M
May 25, 2019 - 11:53 AM EDT / 2019.05.25 1553 UTC
Wind: from the S (170 degrees) at 10 MPH (9 KT):0
Visibility: 10 mile(s):0
Sky conditions: mostly cloudy
Temperature: 48.9 F (9.4 C)
Dew Point: 39.9 F (4.4 C)
Relative Humidity: 70%
Pressure (altimeter): 29.9 in. Hg (1012 hPa)
ob: KGEG 251553Z 17009KT 10SM FEW016 BKN040 BKN120 09/04 A2990 RMK AO2 SLP126 T00940044
cycle: 16

Station Type Date Time Source
KGEG TAF 2019/05/25 13:33 UTC NOAA

TAF
AMD KGEG 251230Z 2513/2612 18006KT P6SM VCSH SCT015 OVC050
FM251700 18008KT P6SM SCT025 BKN080
FM260400 03008KT P6SM VCSH BKN060 OVC100
FM260900 01007KT P6SM -SHRA OVC050

Example: see airport list